Mtm New York — 9V2992 — position and weather

sailwx.info

Track history (hours):
 
Tides and Currents Weather Stations Pressure Air Temp Water Temp Dewpoint Dewpoint Depression Visibility Wind Speed Wind Dir Waves Ship Positions

Mtm New York

Last reported at 2018-Jun-21 21:55 UTC. Time now 2018-Jun-22 07:45 UTC.
Position N 35°02' E 129°22'.

Length 179 m; draft 10.6 m.

Type: Tanker. MMSI: 564751000.

Date/timePositionNaut miles runAvg speedWind from/ knotsBaromVisibWave heightAir tempDewpointWater temp
2018-Jun-21 21:55N 35°02' E 129°22'  
2018-Jun-14 16:07N 01°26' E 104°30'214.9
2018-Jun-14 15:59N 01°25' E 104°28'714.8
2018-Jun-14 15:30N 01°20' E 104°23'713.5
2018-Jun-14 15:00N 01°17' E 104°16'713.6
2018-Jun-14 14:29N 01°16' E 104°10'612.2
2018-Jun-14 14:00N 01°15' E 104°04'611.6
2018-Jun-14 13:30N 01°14' E 103°58'611.5
2018-Jun-14 13:00N 01°12' E 103°53'510.6
2018-Jun-14 12:30N 01°09' E 103°48'611.3
2018-Jun-14 12:00N 01°06' E 103°44'611.4
2018-Jun-14 11:30N 01°03' E 103°39'510.9
2018-Jun-14 11:00N 01°06' E 103°34'4 8.1
2018-Jun-14 10:28N 01°10' E 103°34'612.2
2018-Jun-14 10:00N 01°11' E 103°39'2 3.0
2018-Jun-14 09:30N 01°12' E 103°41'0 0.1
2018-Jun-14 09:00N 01°12' E 103°40'0 0.1
2018-Jun-14 08:15N 01°12' E 103°41'0 0.0
2018-Jun-14 07:54N 01°12' E 103°41'0 0.0
2018-Jun-14 07:00N 01°12' E 103°41'0 0.2
2018-Jun-14 06:12N 01°12' E 103°41'0 0.1
2018-Jun-14 06:00N 01°12' E 103°41'0 0.1
2018-Jun-14 05:27N 01°12' E 103°41'0 0.0
2018-Jun-14 05:00N 01°12' E 103°41'0 0.0
2018-Jun-14 04:27N 01°12' E 103°41'0 0.1
2018-Jun-14 03:59N 01°12' E 103°41'0 0.1
2018-Jun-14 03:26N 01°12' E 103°41'0 0.0
2018-Jun-14 02:59N 01°12' E 103°41'0 0.0
2018-Jun-14 02:30N 01°12' E 103°41'0 0.0
2018-Jun-14 02:00N 01°12' E 103°41'0 0.0
2018-Jun-14 01:30N 01°12' E 103°41'0 0.0
2018-Jun-14 01:00N 01°12' E 103°41'0 0.0
2018-Jun-14 00:27N 01°12' E 103°41'0 0.0
2018-Jun-14 00:00N 01°12' E 103°41'0 0.0
2018-Jun-13 23:27N 01°12' E 103°41'0 0.0
2018-Jun-13 23:00N 01°12' E 103°41'0 0.0
2018-Jun-13 22:27N 01°12' E 103°41'0 0.0
2018-Jun-13 22:00N 01°12' E 103°41'0 0.0
2018-Jun-13 21:24N 01°12' E 103°41'0 0.0
2018-Jun-13 21:00N 01°12' E 103°41'0 0.0
2018-Jun-13 20:26N 01°12' E 103°41'0 0.0
2018-Jun-13 19:59N 01°12' E 103°41'0 0.0
2018-Jun-13 19:29N 01°12' E 103°41'0 0.7
2018-Jun-13 19:00N 01°12' E 103°41'2 3.7
2018-Jun-13 18:30N 01°12' E 103°39'3 6.7
2018-Jun-13 18:00N 01°12' E 103°36'3 6.0
2018-Jun-13 17:31N 01°10' E 103°34'3 6.3
2018-Jun-13 17:00N 01°10' E 103°30'3 5.4
2018-Jun-13 16:31N 01°10' E 103°28'4 8.1
2018-Jun-13 15:58N 01°12' E 103°24'5 9.7
2018-Jun-13 15:25N 01°15' E 103°20'511.8
2018-Jun-13 14:57N 01°19' E 103°16'  
Track history (hours):
 
Tides and Currents Weather Stations Pressure Air Temp Water Temp Dewpoint Dewpoint Depression Visibility Wind Speed Wind Dir Waves Ship Positions

Mtm New York

Last reported at 2018-Jun-21 21:55 UTC. Time now 2018-Jun-22 07:45 UTC.
Position N 35°02' E 129°22'.

Length 179 m; draft 10.6 m.

Type: Tanker. MMSI: 564751000.

Date/timePositionNaut miles runAvg speedWind from/ knotsBaromVisibWave heightAir tempDewpointWater temp
2018-Jun-21 21:55N 35°02' E 129°22'  
2018-Jun-14 16:07N 01°26' E 104°30'214.9
2018-Jun-14 15:59N 01°25' E 104°28'714.8
2018-Jun-14 15:30N 01°20' E 104°23'713.5
2018-Jun-14 15:00N 01°17' E 104°16'713.6
2018-Jun-14 14:29N 01°16' E 104°10'612.2
2018-Jun-14 14:00N 01°15' E 104°04'611.6
2018-Jun-14 13:30N 01°14' E 103°58'611.5
2018-Jun-14 13:00N 01°12' E 103°53'510.6
2018-Jun-14 12:30N 01°09' E 103°48'611.3
2018-Jun-14 12:00N 01°06' E 103°44'611.4
2018-Jun-14 11:30N 01°03' E 103°39'510.9
2018-Jun-14 11:00N 01°06' E 103°34'4 8.1
2018-Jun-14 10:28N 01°10' E 103°34'612.2
2018-Jun-14 10:00N 01°11' E 103°39'2 3.0
2018-Jun-14 09:30N 01°12' E 103°41'0 0.1
2018-Jun-14 09:00N 01°12' E 103°40'0 0.1
2018-Jun-14 08:15N 01°12' E 103°41'0 0.0
2018-Jun-14 07:54N 01°12' E 103°41'0 0.0
2018-Jun-14 07:00N 01°12' E 103°41'0 0.2
2018-Jun-14 06:12N 01°12' E 103°41'0 0.1
2018-Jun-14 06:00N 01°12' E 103°41'0 0.1
2018-Jun-14 05:27N 01°12' E 103°41'0 0.0
2018-Jun-14 05:00N 01°12' E 103°41'0 0.0
2018-Jun-14 04:27N 01°12' E 103°41'0 0.1
2018-Jun-14 03:59N 01°12' E 103°41'0 0.1
2018-Jun-14 03:26N 01°12' E 103°41'0 0.0
2018-Jun-14 02:59N 01°12' E 103°41'0 0.0
2018-Jun-14 02:30N 01°12' E 103°41'0 0.0
2018-Jun-14 02:00N 01°12' E 103°41'0 0.0
2018-Jun-14 01:30N 01°12' E 103°41'0 0.0
2018-Jun-14 01:00N 01°12' E 103°41'0 0.0
2018-Jun-14 00:27N 01°12' E 103°41'0 0.0
2018-Jun-14 00:00N 01°12' E 103°41'0 0.0
2018-Jun-13 23:27N 01°12' E 103°41'0 0.0
2018-Jun-13 23:00N 01°12' E 103°41'0 0.0
2018-Jun-13 22:27N 01°12' E 103°41'0 0.0
2018-Jun-13 22:00N 01°12' E 103°41'0 0.0
2018-Jun-13 21:24N 01°12' E 103°41'0 0.0
2018-Jun-13 21:00N 01°12' E 103°41'0 0.0
2018-Jun-13 20:26N 01°12' E 103°41'0 0.0
2018-Jun-13 19:59N 01°12' E 103°41'0 0.0
2018-Jun-13 19:29N 01°12' E 103°41'0 0.7
2018-Jun-13 19:00N 01°12' E 103°41'2 3.7
2018-Jun-13 18:30N 01°12' E 103°39'3 6.7
2018-Jun-13 18:00N 01°12' E 103°36'3 6.0
2018-Jun-13 17:31N 01°10' E 103°34'3 6.3
2018-Jun-13 17:00N 01°10' E 103°30'3 5.4
2018-Jun-13 16:31N 01°10' E 103°28'4 8.1
2018-Jun-13 15:58N 01°12' E 103°24'5 9.7
2018-Jun-13 15:25N 01°15' E 103°20'511.8
2018-Jun-13 14:57N 01°19' E 103°16'  

Dump ship's entire track history